createdAt,value
2019-05-29T00:00:22.223Z,15.79
2019-05-29T00:02:30.164Z,15.83
2019-05-29T00:04:37.596Z,15.75
2019-05-29T00:06:45.502Z,15.73
2019-05-29T00:08:53.103Z,15.70
2019-05-29T00:11:00.665Z,15.67
2019-05-29T00:13:08.213Z,15.69
2019-05-29T00:15:16.359Z,15.62
2019-05-29T00:17:23.776Z,15.69
2019-05-29T00:19:31.370Z,15.61
2019-05-29T00:21:38.903Z,15.61
2019-05-29T00:23:46.363Z,15.61
2019-05-29T00:25:53.991Z,15.60
2019-05-29T00:28:01.449Z,15.67
2019-05-29T00:30:09.167Z,15.63
2019-05-29T00:32:17.185Z,15.59
2019-05-29T00:34:24.669Z,15.59
2019-05-29T00:36:32.239Z,15.59
2019-05-29T00:38:40.076Z,15.57
2019-05-29T00:40:47.621Z,15.58
2019-05-29T00:42:55.075Z,15.58
2019-05-29T00:45:02.557Z,15.59
2019-05-29T00:47:10.090Z,15.56
2019-05-29T00:49:18.052Z,15.57
2019-05-29T00:51:25.627Z,15.58
2019-05-29T00:53:33.100Z,15.54
2019-05-29T00:55:40.942Z,15.54
2019-05-29T00:57:48.282Z,15.55
2019-05-29T00:59:55.690Z,15.51
2019-05-29T01:02:03.370Z,15.50
2019-05-29T01:04:11.526Z,15.52
2019-05-29T01:06:20.155Z,15.54
2019-05-29T01:08:27.697Z,15.42
2019-05-29T01:10:35.300Z,15.49
2019-05-29T01:12:42.776Z,15.67
2019-05-29T01:14:50.800Z,15.61
2019-05-29T01:16:58.366Z,15.66
2019-05-29T01:19:23.663Z,15.68
2019-05-29T01:21:32.399Z,15.73
2019-05-29T01:23:40.058Z,15.78
2019-05-29T01:25:47.705Z,15.75
2019-05-29T01:27:55.201Z,15.48
2019-05-29T01:30:02.588Z,15.54
2019-05-29T01:32:10.219Z,15.32
2019-05-29T01:34:17.714Z,15.15
2019-05-29T01:36:25.152Z,15.15
2019-05-29T01:38:32.567Z,15.06
2019-05-29T01:40:39.987Z,15.01
2019-05-29T01:42:49.870Z,14.94
2019-05-29T01:45:07.306Z,14.92
2019-05-29T01:47:05.724Z,14.86
2019-05-29T01:49:13.091Z,14.86
2019-05-29T01:51:21.753Z,14.72
2019-05-29T01:53:29.263Z,14.87
2019-05-29T01:55:36.615Z,14.87
2019-05-29T01:57:43.997Z,14.76
2019-05-29T01:59:51.460Z,14.96
2019-05-29T02:01:58.998Z,14.68
2019-05-29T02:04:06.503Z,14.61
2019-05-29T02:06:14.102Z,14.67
2019-05-29T02:08:22.106Z,14.49
2019-05-29T02:10:29.900Z,14.33
2019-05-29T02:12:37.367Z,14.34
2019-05-29T02:14:44.793Z,14.25
2019-05-29T02:16:52.212Z,14.31
2019-05-29T02:18:59.564Z,14.51
2019-05-29T02:21:07.216Z,14.35
2019-05-29T02:23:15.745Z,14.29
2019-05-29T02:25:24.426Z,14.03
2019-05-29T02:27:31.830Z,14.08
2019-05-29T02:29:39.295Z,14.04
2019-05-29T02:31:46.665Z,14.01
2019-05-29T02:33:54.225Z,14.12
2019-05-29T02:36:01.551Z,14.21
2019-05-29T02:38:09.078Z,14.33
2019-05-29T02:40:18.825Z,14.14
2019-05-29T02:42:27.163Z,14.11
2019-05-29T02:44:34.806Z,14.06
2019-05-29T02:46:42.258Z,13.95
2019-05-29T02:48:49.648Z,13.99
2019-05-29T02:50:57.369Z,13.94
2019-05-29T02:53:04.761Z,14.03
2019-05-29T02:55:12.756Z,14.06
2019-05-29T02:57:20.737Z,13.89
2019-05-29T02:59:29.864Z,13.97
2019-05-29T03:01:37.358Z,13.74
2019-05-29T03:03:44.780Z,13.93
2019-05-29T03:05:53.290Z,13.56
2019-05-29T03:08:00.751Z,13.54
2019-05-29T03:10:09.944Z,13.56
2019-05-29T03:12:17.295Z,13.60
2019-05-29T03:14:25.206Z,13.77
2019-05-29T03:16:34.664Z,13.63
2019-05-29T03:18:41.941Z,13.68
2019-05-29T03:20:49.543Z,13.57
2019-05-29T03:22:56.877Z,13.42
2019-05-29T03:25:04.255Z,13.60
2019-05-29T03:27:11.649Z,13.48
2019-05-29T03:29:19.114Z,13.53
2019-05-29T03:31:30.004Z,13.49
2019-05-29T03:33:45.092Z,13.43
2019-05-29T03:35:48.170Z,13.49
2019-05-29T03:37:54.235Z,13.48
2019-05-29T03:40:01.713Z,13.52
2019-05-29T03:42:09.086Z,13.56
2019-05-29T03:44:16.539Z,13.50
2019-05-29T03:46:31.409Z,13.38
2019-05-29T03:48:34.427Z,13.44
2019-05-29T03:50:42.159Z,13.33
2019-05-29T03:52:49.725Z,13.28
2019-05-29T03:54:57.248Z,13.33
2019-05-29T03:57:04.731Z,13.50
2019-05-29T03:59:12.261Z,13.31
2019-05-29T04:01:19.633Z,13.51
2019-05-29T04:03:28.497Z,13.44
2019-05-29T04:05:37.951Z,13.34
2019-05-29T04:07:45.583Z,13.11
2019-05-29T04:09:53.406Z,13.24
2019-05-29T04:12:01.040Z,13.01
2019-05-29T04:14:08.518Z,13.09
2019-05-29T04:16:16.991Z,13.18
2019-05-29T04:18:29.585Z,13.17
2019-05-29T04:20:39.017Z,13.08
2019-05-29T04:22:48.257Z,13.30
2019-05-29T04:24:57.778Z,13.26
2019-05-29T04:27:08.337Z,13.13
2019-05-29T04:29:16.433Z,12.94
2019-05-29T04:31:23.953Z,12.96
2019-05-29T04:33:32.585Z,12.91
2019-05-29T04:35:40.784Z,12.96
2019-05-29T04:37:48.397Z,12.97
2019-05-29T04:39:56.273Z,12.88
2019-05-29T04:42:04.337Z,13.01
2019-05-29T04:44:11.861Z,12.84
2019-05-29T04:46:19.603Z,12.87
2019-05-29T04:48:29.345Z,12.77
2019-05-29T04:50:39.745Z,12.61
2019-05-29T04:52:46.686Z,12.61
2019-05-29T04:54:54.229Z,12.47
2019-05-29T04:57:01.737Z,12.29
2019-05-29T04:59:09.317Z,12.42
2019-05-29T05:01:16.709Z,12.29
2019-05-29T05:03:24.229Z,12.35
2019-05-29T05:05:33.267Z,12.51
2019-05-29T05:07:40.855Z,12.26
2019-05-29T05:09:48.284Z,12.59
2019-05-29T05:11:56.928Z,12.50
2019-05-29T05:14:05.392Z,12.57
2019-05-29T05:16:12.992Z,12.44
2019-05-29T05:18:20.502Z,12.61
2019-05-29T05:20:27.943Z,12.45
2019-05-29T05:22:36.292Z,12.38
2019-05-29T05:24:44.704Z,12.31
2019-05-29T05:26:52.236Z,12.39
2019-05-29T05:28:59.984Z,12.24
2019-05-29T05:31:07.845Z,12.61
2019-05-29T05:33:15.370Z,12.45
2019-05-29T05:35:23.002Z,12.47
2019-05-29T05:37:30.658Z,12.45
2019-05-29T05:39:39.076Z,12.35
2019-05-29T05:41:46.702Z,12.55
2019-05-29T05:43:54.209Z,12.31
2019-05-29T05:46:01.802Z,12.30
2019-05-29T05:48:09.303Z,12.24
2019-05-29T05:50:18.625Z,12.25
2019-05-29T05:52:26.492Z,12.30
2019-05-29T05:54:35.321Z,12.12
2019-05-29T05:56:43.458Z,12.49
2019-05-29T05:58:51.133Z,12.49
2019-05-29T06:00:58.728Z,12.26
2019-05-29T06:03:06.837Z,12.31
2019-05-29T06:05:15.021Z,12.19
2019-05-29T06:07:22.864Z,12.34
2019-05-29T06:09:32.660Z,12.13
2019-05-29T06:11:40.513Z,12.09
2019-05-29T06:13:48.271Z,12.26
2019-05-29T06:15:55.765Z,12.37
2019-05-29T06:18:19.995Z,12.12
2019-05-29T06:20:13.064Z,12.25
2019-05-29T06:22:21.094Z,12.46
2019-05-29T06:24:29.853Z,12.22
2019-05-29T06:26:37.353Z,12.20
2019-05-29T06:28:44.695Z,12.16
2019-05-29T06:30:52.285Z,12.09
2019-05-29T06:32:59.649Z,12.30
2019-05-29T06:35:08.386Z,11.88
2019-05-29T06:37:15.783Z,11.78
2019-05-29T06:39:23.217Z,12.02
2019-05-29T06:41:30.717Z,12.13
2019-05-29T06:43:38.068Z,11.99
2019-05-29T06:45:45.541Z,11.76
2019-05-29T06:47:53.034Z,11.91
2019-05-29T06:50:00.483Z,11.98
2019-05-29T06:52:09.300Z,11.80
2019-05-29T06:54:16.809Z,11.65
2019-05-29T06:56:24.229Z,11.78
2019-05-29T06:58:31.681Z,11.95
2019-05-29T07:00:39.861Z,11.89
2019-05-29T07:02:48.205Z,11.99
2019-05-29T07:04:55.740Z,11.78
2019-05-29T07:07:03.164Z,11.95
2019-05-29T07:09:10.603Z,11.81
2019-05-29T07:11:18.077Z,11.84
2019-05-29T07:13:25.569Z,11.78
2019-05-29T07:15:33.194Z,11.82
2019-05-29T07:17:40.668Z,11.98
2019-05-29T07:20:00.104Z,11.92
2019-05-29T07:21:57.339Z,11.82
2019-05-29T07:24:04.719Z,11.95
2019-05-29T07:26:12.154Z,11.77
2019-05-29T07:28:19.606Z,11.80
2019-05-29T07:30:27.121Z,11.71
2019-05-29T07:32:34.558Z,11.70
2019-05-29T07:35:01.316Z,11.99
2019-05-29T07:36:51.100Z,11.83
2019-05-29T07:39:03.598Z,11.81
2019-05-29T07:41:07.667Z,11.92
2019-05-29T07:43:15.198Z,12.01
2019-05-29T07:45:23.007Z,11.89
2019-05-29T07:47:30.527Z,11.77
2019-05-29T07:49:40.894Z,11.70
2019-05-29T07:51:47.198Z,11.73
2019-05-29T07:53:55.056Z,11.84
2019-05-29T07:56:02.425Z,11.92
2019-05-29T07:58:09.872Z,11.83
2019-05-29T08:00:17.944Z,11.88
2019-05-29T08:02:25.350Z,11.78
2019-05-29T08:04:32.720Z,11.80
2019-05-29T08:06:47.792Z,12.02
2019-05-29T08:08:49.646Z,11.99
2019-05-29T08:10:57.242Z,11.97
2019-05-29T08:13:04.842Z,12.01
2019-05-29T08:15:12.535Z,12.14
2019-05-29T08:17:20.119Z,11.96
2019-05-29T08:19:28.530Z,11.96
2019-05-29T08:21:35.967Z,11.83
2019-05-29T08:23:44.346Z,11.60
2019-05-29T08:25:51.937Z,11.88
2019-05-29T08:27:59.353Z,12.07
2019-05-29T08:30:09.666Z,11.92
2019-05-29T08:32:17.071Z,11.90
2019-05-29T08:34:24.465Z,11.99
2019-05-29T08:36:31.880Z,12.07
2019-05-29T08:38:39.344Z,12.01
2019-05-29T08:40:47.437Z,11.97
2019-05-29T08:42:55.144Z,12.00
2019-05-29T08:45:02.557Z,11.98
2019-05-29T08:47:11.007Z,12.15
2019-05-29T08:49:18.675Z,12.26
2019-05-29T08:51:26.223Z,12.20
2019-05-29T08:53:34.558Z,12.30
2019-05-29T08:55:42.159Z,12.35
2019-05-29T08:57:50.510Z,12.31
2019-05-29T08:59:57.933Z,12.34
2019-05-29T09:02:05.515Z,12.37
2019-05-29T09:04:13.035Z,12.31
2019-05-29T09:06:20.530Z,12.15
2019-05-29T09:08:28.080Z,12.06
2019-05-29T09:10:35.627Z,12.22
2019-05-29T09:12:47.067Z,12.17
2019-05-29T09:14:52.559Z,12.13
2019-05-29T09:17:00.308Z,12.14
2019-05-29T09:19:07.828Z,12.13
2019-05-29T09:21:17.438Z,12.22
2019-05-29T09:23:25.005Z,12.14
2019-05-29T09:25:32.653Z,12.11
2019-05-29T09:27:40.172Z,12.10
2019-05-29T09:29:47.615Z,12.27
2019-05-29T09:31:55.058Z,12.20
2019-05-29T09:34:02.583Z,12.22
2019-05-29T09:36:10.017Z,12.26
2019-05-29T09:38:18.778Z,12.23
2019-05-29T09:40:26.453Z,12.25
2019-05-29T09:42:33.946Z,12.37
2019-05-29T09:44:41.357Z,12.45
2019-05-29T09:46:48.917Z,12.40
2019-05-29T09:48:56.404Z,12.37
2019-05-29T09:51:20.256Z,12.52
2019-05-29T09:53:13.136Z,12.48
2019-05-29T09:55:20.992Z,12.42
2019-05-29T09:57:28.480Z,12.50
2019-05-29T09:59:35.916Z,12.60
2019-05-29T10:01:43.397Z,12.54
2019-05-29T10:03:51.011Z,12.64
2019-05-29T10:05:59.482Z,12.65
2019-05-29T10:08:07.200Z,12.64
2019-05-29T10:10:15.982Z,12.63
2019-05-29T10:12:23.489Z,12.55
2019-05-29T10:14:30.883Z,12.50
2019-05-29T10:16:38.523Z,12.32
2019-05-29T10:18:46.055Z,12.37
2019-05-29T10:20:54.791Z,12.27
2019-05-29T10:23:03.464Z,12.29
2019-05-29T10:25:12.655Z,12.22
2019-05-29T10:27:20.072Z,12.13
2019-05-29T10:29:27.716Z,12.19
2019-05-29T10:31:35.213Z,12.07
2019-05-29T10:33:43.846Z,12.14
2019-05-29T10:35:55.298Z,12.27
2019-05-29T10:38:00.911Z,12.31
2019-05-29T10:40:09.435Z,12.33
2019-05-29T10:42:20.526Z,12.27
2019-05-29T10:44:26.139Z,12.35
2019-05-29T10:46:33.664Z,12.28
2019-05-29T10:48:41.285Z,12.30
2019-05-29T10:50:50.984Z,12.42
2019-05-29T10:52:58.121Z,12.36
2019-05-29T10:55:06.460Z,12.48
2019-05-29T10:57:13.932Z,12.51
2019-05-29T10:59:21.434Z,12.49
2019-05-29T11:01:28.846Z,12.63
2019-05-29T11:03:36.346Z,12.67
2019-05-29T11:05:43.837Z,12.54
2019-05-29T11:07:51.896Z,12.60
2019-05-29T11:09:59.712Z,12.49
2019-05-29T11:12:07.276Z,12.52
2019-05-29T11:14:14.935Z,12.67
2019-05-29T11:16:22.429Z,12.68
2019-05-29T11:18:29.967Z,12.80
2019-05-29T11:20:37.691Z,12.69
2019-05-29T11:22:45.252Z,12.70
2019-05-29T11:24:54.007Z,12.73
2019-05-29T11:27:01.689Z,12.67
2019-05-29T11:29:09.339Z,12.60
2019-05-29T11:31:17.285Z,12.62
2019-05-29T11:33:24.783Z,12.58
2019-05-29T11:35:32.393Z,12.59
2019-05-29T11:37:39.857Z,12.58
2019-05-29T11:39:47.318Z,12.62
2019-05-29T11:41:54.853Z,12.69
2019-05-29T11:44:03.489Z,12.66
2019-05-29T11:46:11.015Z,12.81
2019-05-29T11:48:18.424Z,13.00
2019-05-29T11:50:25.941Z,13.10
2019-05-29T11:52:42.598Z,13.11
2019-05-29T11:54:42.974Z,13.15
2019-05-29T11:56:51.850Z,13.22
2019-05-29T11:58:59.601Z,13.20
2019-05-29T12:01:07.516Z,13.20
2019-05-29T12:03:14.967Z,13.20
2019-05-29T12:05:22.842Z,13.14
2019-05-29T12:07:30.249Z,13.13
2019-05-29T12:09:37.850Z,13.18
2019-05-29T12:11:46.558Z,13.26
2019-05-29T12:13:54.408Z,13.36
2019-05-29T12:16:04.954Z,13.54
2019-05-29T12:18:23.602Z,13.53
2019-05-29T12:20:28.024Z,13.66
2019-05-29T12:22:31.971Z,13.70
2019-05-29T12:24:40.827Z,13.59
2019-05-29T12:26:48.357Z,13.59
2019-05-29T12:29:03.676Z,13.58
2019-05-29T12:31:05.225Z,13.55
2019-05-29T12:33:12.688Z,13.50
2019-05-29T12:35:20.399Z,13.52
2019-05-29T12:37:27.972Z,13.50
2019-05-29T12:39:35.529Z,13.51
2019-05-29T12:41:42.959Z,13.55
2019-05-29T12:43:50.380Z,13.59
2019-05-29T12:45:57.936Z,13.60
2019-05-29T12:48:12.470Z,13.66
2019-05-29T12:50:16.820Z,13.77
2019-05-29T12:52:26.205Z,13.76
2019-05-29T12:54:34.360Z,13.70
2019-05-29T12:56:43.759Z,13.72
2019-05-29T12:58:54.156Z,13.79
2019-05-29T13:01:04.966Z,13.72
2019-05-29T13:03:12.506Z,13.68
2019-05-29T13:05:22.825Z,13.56
2019-05-29T13:07:35.036Z,13.55
2019-05-29T13:09:44.298Z,13.60
2019-05-29T13:11:51.939Z,13.62
2019-05-29T13:14:00.587Z,13.67
2019-05-29T13:16:09.323Z,13.67
2019-05-29T13:18:17.346Z,13.69
2019-05-29T13:20:26.137Z,13.71
2019-05-29T13:22:33.926Z,13.78
2019-05-29T13:24:41.936Z,13.80
2019-05-29T13:26:51.114Z,13.83
2019-05-29T13:29:01.757Z,13.90
2019-05-29T13:31:09.261Z,13.86
2019-05-29T13:33:18.963Z,13.92
2019-05-29T13:35:26.934Z,14.01
2019-05-29T13:37:34.920Z,14.06
2019-05-29T13:39:42.718Z,14.16
2019-05-29T13:41:50.311Z,14.23
2019-05-29T13:44:00.375Z,14.20
2019-05-29T13:46:08.029Z,14.06
2019-05-29T13:48:16.433Z,14.09
2019-05-29T13:50:26.562Z,14.09
2019-05-29T13:52:37.612Z,14.14
2019-05-29T13:54:48.603Z,14.12
2019-05-29T13:56:56.113Z,14.13
2019-05-29T13:59:04.890Z,14.14
2019-05-29T14:01:14.381Z,14.17
2019-05-29T14:03:42.177Z,14.16
2019-05-29T14:05:50.631Z,14.14
2019-05-29T14:07:58.585Z,14.15
2019-05-29T14:10:07.841Z,14.18
2019-05-29T14:12:17.615Z,14.24
2019-05-29T14:14:25.362Z,14.28
2019-05-29T14:16:33.361Z,14.31
2019-05-29T14:18:41.146Z,14.31
2019-05-29T14:20:48.772Z,14.24
2019-05-29T14:22:58.139Z,14.15
2019-05-29T14:25:09.670Z,14.16
2019-05-29T14:27:17.337Z,14.16
2019-05-29T14:29:24.918Z,14.26
2019-05-29T14:31:32.491Z,14.31
2019-05-29T14:33:40.480Z,14.39
2019-05-29T14:35:48.182Z,14.56
2019-05-29T14:37:56.955Z,14.67
2019-05-29T14:40:05.624Z,14.64
2019-05-29T14:42:13.227Z,14.60
2019-05-29T14:44:20.898Z,14.71
2019-05-29T14:46:28.740Z,14.77
2019-05-29T14:48:36.376Z,14.91
2019-05-29T14:50:44.144Z,14.89
2019-05-29T14:52:51.549Z,14.84
2019-05-29T14:54:59.141Z,15.02
2019-05-29T14:57:17.252Z,15.08
2019-05-29T14:59:15.947Z,15.10
2019-05-29T15:01:23.542Z,14.90
2019-05-29T15:03:31.115Z,14.87
2019-05-29T15:05:38.592Z,14.68
2019-05-29T15:07:46.191Z,14.66
2019-05-29T15:09:53.701Z,14.58
2019-05-29T15:12:01.054Z,14.60
2019-05-29T15:14:08.569Z,14.58
2019-05-29T15:16:16.283Z,14.52
2019-05-29T15:18:23.707Z,14.48
2019-05-29T15:20:31.112Z,14.43
2019-05-29T15:22:38.581Z,14.39
2019-05-29T15:25:00.867Z,14.40
2019-05-29T15:26:55.191Z,14.38
2019-05-29T15:29:02.597Z,14.37
2019-05-29T15:31:10.447Z,14.33
2019-05-29T15:33:18.037Z,14.32
2019-05-29T15:35:26.539Z,14.38
2019-05-29T15:37:33.998Z,14.40
2019-05-29T15:39:41.571Z,14.40
2019-05-29T15:41:49.467Z,14.38
2019-05-29T15:43:56.910Z,14.36
2019-05-29T15:46:04.340Z,14.37
2019-05-29T15:48:13.017Z,14.34
2019-05-29T15:50:20.892Z,14.37
2019-05-29T15:52:28.679Z,14.36
2019-05-29T15:54:36.272Z,14.36
2019-05-29T15:56:43.998Z,14.35
2019-05-29T15:58:51.486Z,14.32
2019-05-29T16:00:58.990Z,14.32
2019-05-29T16:03:07.969Z,14.31
2019-05-29T16:05:19.170Z,14.38
2019-05-29T16:07:27.177Z,14.40
2019-05-29T16:09:34.591Z,14.41
2019-05-29T16:11:44.373Z,14.38
2019-05-29T16:13:52.280Z,14.34
2019-05-29T16:16:01.225Z,14.37
2019-05-29T16:18:21.969Z,14.36
2019-05-29T16:20:22.714Z,14.34
2019-05-29T16:22:30.418Z,14.34
2019-05-29T16:24:37.818Z,14.30
2019-05-29T16:26:45.406Z,14.30
2019-05-29T16:28:52.975Z,14.31
2019-05-29T16:31:00.489Z,14.31
2019-05-29T16:33:08.576Z,14.29
2019-05-29T16:35:19.606Z,14.30
2019-05-29T16:37:27.671Z,14.28
2019-05-29T16:39:35.224Z,14.28
2019-05-29T16:41:42.707Z,14.30
2019-05-29T16:43:50.655Z,14.29
2019-05-29T16:45:58.841Z,14.27
2019-05-29T16:48:07.109Z,14.25
2019-05-29T16:50:17.255Z,14.26
2019-05-29T16:52:24.731Z,14.23
2019-05-29T16:54:32.425Z,14.15
2019-05-29T16:56:40.125Z,14.21
2019-05-29T16:58:47.663Z,14.24
2019-05-29T17:00:55.356Z,14.20
2019-05-29T17:03:03.306Z,14.25
2019-05-29T17:05:13.666Z,14.23
2019-05-29T17:07:22.371Z,14.21
2019-05-29T17:09:30.077Z,14.23
2019-05-29T17:11:37.721Z,14.24
2019-05-29T17:13:45.356Z,14.24
2019-05-29T17:15:52.998Z,14.22
2019-05-29T17:18:00.611Z,14.14
2019-05-29T17:20:09.499Z,14.17
2019-05-29T17:22:17.074Z,14.14
2019-05-29T17:24:25.186Z,14.13
2019-05-29T17:26:32.764Z,14.12
2019-05-29T17:28:40.327Z,14.10
2019-05-29T17:30:47.982Z,14.05
2019-05-29T17:32:55.718Z,14.05
2019-05-29T17:35:03.219Z,14.02
2019-05-29T17:37:10.859Z,13.99
2019-05-29T17:39:19.917Z,13.93
2019-05-29T17:41:27.564Z,13.99
2019-05-29T17:43:35.158Z,13.98
2019-05-29T17:45:43.709Z,13.91
2019-05-29T17:47:51.440Z,13.93
2019-05-29T17:50:01.183Z,13.90
2019-05-29T17:52:08.827Z,13.76
2019-05-29T17:54:17.773Z,13.89
2019-05-29T17:56:35.795Z,13.91
2019-05-29T17:58:34.741Z,13.94
2019-05-29T18:00:42.671Z,13.89
2019-05-29T18:02:52.359Z,13.93
2019-05-29T18:04:59.831Z,13.87
2019-05-29T18:07:07.467Z,13.91
2019-05-29T18:09:15.199Z,13.91
2019-05-29T18:11:23.334Z,13.90
2019-05-29T18:13:31.611Z,13.86
2019-05-29T18:15:39.201Z,13.83
2019-05-29T18:17:47.074Z,13.75
2019-05-29T18:19:54.563Z,13.67
2019-05-29T18:22:02.347Z,13.61
2019-05-29T18:24:09.924Z,13.66
2019-05-29T18:26:17.973Z,13.57
2019-05-29T18:28:26.132Z,13.51
2019-05-29T18:30:33.776Z,13.38
2019-05-29T18:32:41.359Z,13.29
2019-05-29T18:34:51.734Z,13.38
2019-05-29T18:36:58.545Z,13.35
2019-05-29T18:39:08.037Z,13.48
2019-05-29T18:41:15.565Z,13.43
2019-05-29T18:43:23.015Z,13.36
2019-05-29T18:45:30.616Z,13.44
2019-05-29T18:47:38.393Z,13.33
2019-05-29T18:49:45.846Z,13.21
2019-05-29T18:51:53.806Z,13.25
2019-05-29T18:54:01.693Z,13.07
2019-05-29T18:56:09.456Z,13.07
2019-05-29T18:58:17.006Z,13.05
2019-05-29T19:00:25.436Z,13.15
2019-05-29T19:02:33.221Z,13.20
2019-05-29T19:04:41.161Z,13.14
2019-05-29T19:06:49.247Z,13.13
2019-05-29T19:08:57.790Z,13.08
2019-05-29T19:11:05.414Z,12.97
2019-05-29T19:13:13.153Z,12.92
2019-05-29T19:15:21.889Z,12.82
2019-05-29T19:17:30.089Z,12.61
2019-05-29T19:19:38.129Z,12.67
2019-05-29T19:21:45.869Z,12.78
2019-05-29T19:23:53.886Z,12.79
2019-05-29T19:26:02.346Z,12.59
2019-05-29T19:28:10.106Z,12.43
2019-05-29T19:30:17.695Z,12.16
2019-05-29T19:32:27.149Z,12.13
2019-05-29T19:34:34.960Z,12.12
2019-05-29T19:37:04.080Z,12.18
2019-05-29T19:39:11.651Z,12.01
2019-05-29T19:41:19.163Z,11.98
2019-05-29T19:43:28.157Z,11.97
2019-05-29T19:45:36.451Z,12.05
2019-05-29T19:47:44.135Z,12.03
2019-05-29T19:49:51.735Z,11.94
2019-05-29T19:51:59.396Z,12.08
2019-05-29T19:54:07.325Z,12.05
2019-05-29T19:56:15.301Z,12.11
2019-05-29T19:58:23.156Z,12.01
2019-05-29T20:00:31.937Z,12.04
2019-05-29T20:02:40.243Z,12.04
2019-05-29T20:04:48.019Z,12.13
2019-05-29T20:06:55.738Z,12.11
2019-05-29T20:09:03.522Z,12.22
2019-05-29T20:11:12.374Z,12.09
2019-05-29T20:13:20.123Z,12.08
2019-05-29T20:15:27.834Z,12.18
2019-05-29T20:17:36.247Z,11.99
2019-05-29T20:19:45.834Z,12.08
2019-05-29T20:21:53.441Z,12.10
2019-05-29T20:24:02.802Z,12.12
2019-05-29T20:26:10.730Z,11.91
2019-05-29T20:28:18.650Z,11.96
2019-05-29T20:30:26.438Z,11.94
2019-05-29T20:32:34.665Z,11.80
2019-05-29T20:34:43.453Z,11.92
2019-05-29T20:36:51.203Z,11.96
2019-05-29T20:38:59.092Z,11.85
2019-05-29T20:41:06.792Z,11.71
2019-05-29T20:43:14.353Z,11.56
2019-05-29T20:45:22.286Z,11.60
2019-05-29T20:47:31.575Z,11.58
2019-05-29T20:49:40.103Z,11.66
2019-05-29T20:51:48.186Z,11.72
2019-05-29T20:53:55.788Z,11.59
2019-05-29T20:56:04.568Z,11.34
2019-05-29T20:58:23.972Z,11.53
2019-05-29T21:00:22.827Z,11.48
2019-05-29T21:02:31.938Z,11.43
2019-05-29T21:04:40.678Z,11.40
2019-05-29T21:06:48.908Z,11.35
2019-05-29T21:08:56.796Z,11.35
2019-05-29T21:11:04.990Z,11.21
2019-05-29T21:13:12.769Z,11.29
2019-05-29T21:15:20.859Z,11.07
2019-05-29T21:17:29.471Z,11.02
2019-05-29T21:19:38.204Z,10.96
2019-05-29T21:21:46.331Z,10.95
2019-05-29T21:23:54.123Z,10.85
2019-05-29T21:26:01.798Z,10.84
2019-05-29T21:28:09.542Z,10.89
2019-05-29T21:30:22.518Z,10.81
2019-05-29T21:32:30.296Z,10.58
2019-05-29T21:34:38.041Z,10.64
2019-05-29T21:36:46.413Z,10.70
2019-05-29T21:38:54.421Z,10.61
2019-05-29T21:41:02.929Z,10.74
2019-05-29T21:43:10.516Z,10.75
2019-05-29T21:45:18.573Z,10.88
2019-05-29T21:47:26.079Z,10.78
2019-05-29T21:49:33.664Z,10.57
2019-05-29T21:51:41.529Z,10.57
2019-05-29T21:53:49.307Z,10.66
2019-05-29T21:55:56.917Z,10.30
2019-05-29T21:58:04.809Z,10.39
2019-05-29T22:00:18.477Z,10.47
2019-05-29T22:02:26.259Z,10.50
2019-05-29T22:04:34.101Z,10.39
2019-05-29T22:06:42.614Z,10.45
2019-05-29T22:08:50.405Z,10.48
2019-05-29T22:10:58.075Z,10.48
2019-05-29T22:13:05.648Z,10.39
2019-05-29T22:15:13.253Z,10.43
2019-05-29T22:17:21.147Z,10.57
2019-05-29T22:19:28.857Z,10.56
2019-05-29T22:21:36.355Z,10.42
2019-05-29T22:23:43.929Z,10.47
2019-05-29T22:25:51.586Z,10.47
2019-05-29T22:28:00.023Z,10.46
2019-05-29T22:30:11.154Z,10.48
2019-05-29T22:32:18.581Z,10.44
2019-05-29T22:34:25.975Z,10.32
2019-05-29T22:36:33.605Z,10.28
2019-05-29T22:38:41.096Z,10.06
2019-05-29T22:40:48.690Z,10.25
2019-05-29T22:42:57.511Z,10.16
2019-05-29T22:45:05.466Z,10.04
2019-05-29T22:47:12.847Z,10.06
2019-05-29T22:49:20.349Z,10.21
2019-05-29T22:51:27.820Z,10.01
2019-05-29T22:53:35.241Z,9.87
2019-05-29T22:55:42.681Z,9.78
2019-05-29T22:57:50.348Z,9.81
2019-05-29T22:59:57.942Z,9.80
2019-05-29T23:02:05.732Z,9.86
2019-05-29T23:04:13.171Z,9.83
2019-05-29T23:06:20.632Z,9.77
2019-05-29T23:08:28.125Z,9.76
2019-05-29T23:10:35.734Z,9.71
2019-05-29T23:12:44.064Z,9.66
2019-05-29T23:14:52.454Z,9.59
2019-05-29T23:17:00.613Z,9.59
2019-05-29T23:19:08.198Z,9.51
2019-05-29T23:21:15.665Z,9.26
2019-05-29T23:23:23.098Z,9.13
2019-05-29T23:25:30.571Z,8.92
2019-05-29T23:27:38.163Z,8.86
2019-05-29T23:29:49.268Z,8.69
2019-05-29T23:31:55.152Z,8.51
2019-05-29T23:34:03.311Z,8.61
2019-05-29T23:36:10.723Z,8.57
2019-05-29T23:38:18.218Z,8.79
2019-05-29T23:40:25.828Z,8.82
2019-05-29T23:42:33.419Z,8.71
2019-05-29T23:44:41.051Z,8.49
2019-05-29T23:46:48.628Z,8.31
2019-05-29T23:48:56.071Z,8.09
2019-05-29T23:51:03.846Z,8.31
2019-05-29T23:53:11.456Z,8.11
2019-05-29T23:55:22.249Z,8.08
2019-05-29T23:57:29.730Z,7.91
2019-05-29T23:59:37.192Z,7.87
